createdAt,value
2023-01-29T00:05:16.679Z,-2.40
2023-01-29T00:11:46.845Z,-2.70
2023-01-29T00:17:13.423Z,-2.60
2023-01-29T00:23:00.298Z,-2.70
2023-01-29T00:28:30.291Z,-2.70
2023-01-29T00:34:09.563Z,-2.90
2023-01-29T00:39:47.569Z,-2.70
2023-01-29T00:45:10.031Z,-2.60
2023-01-29T00:50:32.001Z,-2.70
2023-01-29T00:56:07.550Z,-2.80
2023-01-29T01:02:19.443Z,-2.80
2023-01-29T01:07:41.959Z,-2.70
2023-01-29T01:13:07.472Z,-2.90
2023-01-29T01:18:49.405Z,-2.70
2023-01-29T01:24:20.284Z,-2.70
2023-01-29T01:29:43.143Z,-2.90
2023-01-29T01:35:05.299Z,-2.80
2023-01-29T01:40:29.547Z,-2.90
2023-01-29T01:46:07.003Z,-2.70
2023-01-29T01:51:55.312Z,-2.70
2023-01-29T02:04:15.598Z,-3.00
2023-01-29T02:10:26.652Z,-2.90
2023-01-29T02:16:12.642Z,-3.00
2023-01-29T02:22:25.410Z,-3.10
2023-01-29T02:28:21.663Z,-3.20
2023-01-29T02:34:03.731Z,-3.30
2023-01-29T02:39:29.950Z,-3.30
2023-01-29T02:45:04.586Z,-3.40
2023-01-29T02:51:21.004Z,-3.40
2023-01-29T02:57:13.855Z,-3.70
2023-01-29T03:03:08.629Z,-3.60
2023-01-29T03:08:43.381Z,-4.00
2023-01-29T03:14:28.517Z,-3.80
2023-01-29T03:19:51.521Z,-3.90
2023-01-29T03:25:38.487Z,-3.90
2023-01-29T03:31:35.670Z,-4.10
2023-01-29T03:37:20.613Z,-4.10
2023-01-29T03:43:39.303Z,-4.10
2023-01-29T03:49:34.591Z,-4.20
2023-01-29T03:55:23.391Z,-4.30
2023-01-29T04:01:18.788Z,-4.30
2023-01-29T04:07:09.232Z,-4.20
2023-01-29T04:13:06.629Z,-4.30
2023-01-29T04:18:57.766Z,-4.30
2023-01-29T04:24:30.879Z,-4.30
2023-01-29T04:30:59.030Z,-4.40
2023-01-29T04:36:54.233Z,-4.50
2023-01-29T04:42:56.468Z,-4.60
2023-01-29T04:48:44.134Z,-4.70
2023-01-29T04:54:44.981Z,-4.70
2023-01-29T05:00:16.492Z,-4.70
2023-01-29T05:05:57.645Z,-4.80
2023-01-29T05:11:35.979Z,-4.80
2023-01-29T05:17:28.671Z,-4.70
2023-01-29T05:22:56.952Z,-4.90
2023-01-29T05:28:39.681Z,-4.90
2023-01-29T05:34:08.294Z,-4.80
2023-01-29T05:39:30.577Z,-4.80
2023-01-29T05:44:52.117Z,-4.80
2023-01-29T05:50:15.613Z,-5.00
2023-01-29T05:55:37.716Z,-5.10
2023-01-29T06:01:16.221Z,-5.10
2023-01-29T06:06:57.682Z,-5.20
2023-01-29T06:12:29.033Z,-5.10
2023-01-29T06:18:05.498Z,-5.10
2023-01-29T06:23:56.350Z,-5.10
2023-01-29T06:29:27.390Z,-5.10
2023-01-29T06:34:49.845Z,-5.10
2023-01-29T06:40:11.937Z,-5.30
2023-01-29T06:45:33.135Z,-5.30
2023-01-29T06:51:22.923Z,-5.30
2023-01-29T06:57:04.473Z,-5.20
2023-01-29T07:02:35.589Z,-5.20
2023-01-29T07:07:57.683Z,-5.10
2023-01-29T07:13:34.759Z,-5.10
2023-01-29T07:19:09.089Z,-5.00
2023-01-29T07:24:35.450Z,-4.90
2023-01-29T07:29:57.178Z,-5.00
2023-01-29T07:35:18.745Z,-4.90
2023-01-29T07:40:40.380Z,-4.70
2023-01-29T07:46:22.580Z,-4.60
2023-01-29T07:52:22.101Z,-4.60
2023-01-29T07:58:08.507Z,-4.40
2023-01-29T08:03:38.321Z,-4.30
2023-01-29T08:09:26.900Z,-4.20
2023-01-29T08:14:50.307Z,-4.20
2023-01-29T08:20:12.239Z,-4.30
2023-01-29T08:25:34.342Z,-4.20
2023-01-29T08:31:55.945Z,-4.30
2023-01-29T08:38:29.521Z,-4.00
2023-01-29T08:50:48.700Z,-4.10
2023-01-29T08:56:32.603Z,-3.90
2023-01-29T09:02:19.454Z,-3.90
2023-01-29T09:07:46.649Z,-3.80
2023-01-29T09:13:20.340Z,-3.80
2023-01-29T09:19:06.074Z,-3.80
2023-01-29T09:24:30.069Z,-3.60
2023-01-29T09:29:51.620Z,-3.50
2023-01-29T09:35:13.084Z,-3.40
2023-01-29T09:41:24.833Z,-3.30
2023-01-29T09:47:21.885Z,-3.30
2023-01-29T09:53:45.435Z,-3.30
2023-01-29T09:59:20.103Z,-3.30
2023-01-29T10:05:08.716Z,-3.30
2023-01-29T10:10:57.680Z,-3.20
2023-01-29T10:17:15.260Z,-3.10
2023-01-29T10:22:57.862Z,-3.00
2023-01-29T10:29:06.572Z,-2.90
2023-01-29T10:34:43.239Z,-2.80
2023-01-29T10:40:21.553Z,-2.70
2023-01-29T10:46:46.972Z,-2.60
2023-01-29T10:53:02.644Z,-2.60
2023-01-29T10:59:04.232Z,-2.40
2023-01-29T11:04:48.838Z,-2.30
2023-01-29T11:10:44.088Z,-2.30
2023-01-29T11:16:22.065Z,-2.10
2023-01-29T11:22:15.992Z,-2.30
2023-01-29T11:27:58.764Z,-2.20
2023-01-29T11:33:29.506Z,-2.10
2023-01-29T11:39:25.247Z,-1.90
2023-01-29T11:44:48.060Z,-1.90
2023-01-29T11:50:27.382Z,-1.60
2023-01-29T11:56:08.555Z,-1.60
2023-01-29T12:02:02.399Z,-1.40
2023-01-29T12:07:29.667Z,-1.20
2023-01-29T12:13:11.601Z,-1.10
2023-01-29T12:19:11.548Z,-1.10
2023-01-29T12:24:57.938Z,-1.10
2023-01-29T12:31:17.583Z,-1.10
2023-01-29T12:37:17.070Z,-0.90
2023-01-29T12:43:04.031Z,-0.70
2023-01-29T12:48:43.339Z,-0.70
2023-01-29T12:54:17.653Z,-0.60
2023-01-29T12:59:51.991Z,-0.60
2023-01-29T13:05:41.497Z,-0.80
2023-01-29T13:11:32.591Z,-0.80
2023-01-29T13:17:18.835Z,-0.90
2023-01-29T13:23:05.270Z,-0.90
2023-01-29T13:28:39.019Z,-1.20
2023-01-29T13:34:11.522Z,-1.00
2023-01-29T13:39:44.535Z,-1.30
2023-01-29T13:45:08.674Z,-1.20
2023-01-29T13:50:41.450Z,-1.00
2023-01-29T13:56:46.102Z,-1.10
2023-01-29T14:02:42.055Z,-1.30
2023-01-29T14:08:35.824Z,-1.00
2023-01-29T14:13:57.384Z,-1.10
2023-01-29T14:19:22.497Z,-1.00
2023-01-29T14:24:44.470Z,-1.00
2023-01-29T14:30:16.766Z,-1.10
2023-01-29T14:35:38.085Z,-1.30
2023-01-29T14:41:41.120Z,-1.20
2023-01-29T14:47:24.761Z,-1.00
2023-01-29T14:53:04.216Z,-1.00
2023-01-29T14:58:58.911Z,-1.00
2023-01-29T15:04:52.480Z,-1.30
2023-01-29T15:10:37.720Z,-1.20
2023-01-29T15:16:28.232Z,-1.30
2023-01-29T15:28:31.310Z,-1.50
2023-01-29T15:34:10.491Z,-1.50
2023-01-29T15:39:44.183Z,-1.70
2023-01-29T15:45:06.185Z,-1.80
2023-01-29T15:50:29.407Z,-1.90
2023-01-29T15:56:31.283Z,-1.90
2023-01-29T16:02:30.602Z,-2.00
2023-01-29T16:07:59.446Z,-2.10
2023-01-29T16:13:46.567Z,-2.10
2023-01-29T16:19:31.945Z,-2.40
2023-01-29T16:24:55.730Z,-2.30
2023-01-29T16:30:18.616Z,-2.40
2023-01-29T16:35:40.771Z,-2.40
2023-01-29T16:41:39.661Z,-2.60
2023-01-29T16:47:28.341Z,-2.70
2023-01-29T16:53:17.211Z,-2.90
2023-01-29T16:58:38.802Z,-2.70
2023-01-29T17:04:30.192Z,-2.70
2023-01-29T17:10:14.642Z,-2.80
2023-01-29T17:15:45.187Z,-2.90
2023-01-29T17:21:28.709Z,-2.80
2023-01-29T17:27:18.506Z,-2.90
2023-01-29T17:33:01.325Z,-2.90
2023-01-29T17:38:45.020Z,-3.00
2023-01-29T17:44:11.516Z,-3.00
2023-01-29T17:49:34.385Z,-3.00
2023-01-29T17:54:56.088Z,-3.10
2023-01-29T18:00:20.845Z,-3.00
2023-01-29T18:05:45.159Z,-3.10
2023-01-29T18:11:28.896Z,-3.00
2023-01-29T18:17:09.933Z,-3.10
2023-01-29T18:23:00.996Z,-3.20
2023-01-29T18:28:38.254Z,-3.10
2023-01-29T18:34:11.652Z,-3.20
2023-01-29T18:39:34.197Z,-3.10
2023-01-29T18:44:55.412Z,-3.20
2023-01-29T18:50:17.048Z,-3.00
2023-01-29T18:55:38.677Z,-3.00
2023-01-29T19:01:00.686Z,-3.00
2023-01-29T19:06:48.665Z,-3.20
2023-01-29T19:12:24.824Z,-3.10
2023-01-29T19:18:01.862Z,-3.10
2023-01-29T19:23:39.394Z,-3.10
2023-01-29T19:29:09.633Z,-3.00
2023-01-29T19:34:31.874Z,-3.10
2023-01-29T19:39:53.976Z,-3.20
2023-01-29T19:45:15.640Z,-3.20
2023-01-29T19:50:38.938Z,-3.10
2023-01-29T19:56:27.459Z,-3.30
2023-01-29T20:02:05.795Z,-3.30
2023-01-29T20:07:43.484Z,-3.30
2023-01-29T20:13:25.084Z,-3.50
2023-01-29T20:19:13.967Z,-3.60
2023-01-29T20:24:42.436Z,-3.80
2023-01-29T20:30:03.872Z,-3.70
2023-01-29T20:35:30.048Z,-3.70
2023-01-29T20:41:25.566Z,-3.70
2023-01-29T20:46:52.159Z,-3.80
2023-01-29T20:52:27.309Z,-3.80
2023-01-29T20:58:06.865Z,-3.90
2023-01-29T21:03:39.790Z,-4.00
2023-01-29T21:09:10.707Z,-4.00
2023-01-29T21:14:32.923Z,-4.20
2023-01-29T21:19:54.489Z,-4.10
2023-01-29T21:25:16.106Z,-4.10
2023-01-29T21:30:37.765Z,-4.00
2023-01-29T21:36:29.414Z,-4.10
2023-01-29T21:42:43.722Z,-4.00
2023-01-29T21:48:23.779Z,-4.00
2023-01-29T21:53:59.646Z,-3.90
2023-01-29T21:59:27.188Z,-4.00
2023-01-29T22:05:18.213Z,-3.80
2023-01-29T22:10:43.297Z,-3.80
2023-01-29T22:16:28.834Z,-3.70
2023-01-29T22:22:09.851Z,-3.70
2023-01-29T22:27:49.409Z,-3.70
2023-01-29T22:33:27.194Z,-3.90
2023-01-29T22:39:00.804Z,-3.70
2023-01-29T22:44:26.323Z,-3.60
2023-01-29T22:49:50.183Z,-3.60
2023-01-29T22:55:13.206Z,-3.50
2023-01-29T23:00:34.739Z,-3.70
2023-01-29T23:06:22.577Z,-3.50
2023-01-29T23:12:17.781Z,-3.40
2023-01-29T23:17:57.096Z,-3.40
2023-01-29T23:23:36.703Z,-3.50
2023-01-29T23:29:08.418Z,-3.30
2023-01-29T23:34:30.747Z,-3.40
2023-01-29T23:39:51.914Z,-3.40
2023-01-29T23:45:13.211Z,-3.40
2023-01-29T23:50:34.853Z,-3.40
2023-01-29T23:56:27.530Z,-3.40
